成都 の空港の天気 - METARとTAF

成都双流国際空港 ( ZUUU / CTU ) - 中国 四川省成都市
飛行場実況気象(Metar)
観測時間02/06 04:00 CST (02/05 20:00 UTC)
風向・風速不定 1m/s
視程3800m
天気現象もや
全天の4割程度の雲 雲底高度 1010m
気温9℃
湿度87%
気圧1017hPa
METARZUUU 052000Z VRB01MPS 3800 BR SCT033 09/07 Q1017 NOSIG
過去の天気等 Google飛行場航空写真 Wunderground天気予報

過去48時間のMETAR

飛行場予報(TAF)
発表時間: 2/05 23:05 CST (2/05 15:05 UTC)
予報対象時間: 6日2時 CST ~ 7日2時 CST
風向・風速北北東 3m/s
視程3500m
天気現象もや
全天の4割程度の雲 雲底高度 1220m
6日2時 CST ~ 6日6時 CST に一時的に
天気現象弱いしゅう雨
6日7時 CST ~ 6日8時 CST に徐々に
視程2300m
6日11時 CST ~ 6日12時 CST に徐々に
視程3500m
TAF ZUUU 051505Z 0518/0618 02003MPS 3500 BR SCT040 TX12/0607Z TN08/0523Z
TEMPO 0518/0522 -SHRA
BECMG 0523/0524 2300
BECMG 0603/0604 3500